createdAt,value
2023-05-12T00:00:07.982Z,2.53
2023-05-12T00:03:17.012Z,2.55
2023-05-12T00:06:19.739Z,2.83
2023-05-12T00:09:21.857Z,2.60
2023-05-12T00:12:24.023Z,2.97
2023-05-12T00:15:26.145Z,2.43
2023-05-12T00:18:28.751Z,2.38
2023-05-12T00:21:31.178Z,3.00
2023-05-12T00:24:33.271Z,2.58
2023-05-12T00:27:35.280Z,3.22
2023-05-12T00:30:37.435Z,2.60
2023-05-12T00:33:39.469Z,2.83
2023-05-12T00:36:41.579Z,2.47
2023-05-12T00:39:43.759Z,3.15
2023-05-12T00:42:45.813Z,3.00
2023-05-12T00:45:48.407Z,2.90
2023-05-12T00:48:50.755Z,2.97
2023-05-12T00:51:54.380Z,2.90
2023-05-12T00:54:56.419Z,3.42
2023-05-12T00:57:59.082Z,3.30
2023-05-12T01:01:02.819Z,2.70
2023-05-12T01:04:05.769Z,3.40
2023-05-12T01:07:12.022Z,2.80
2023-05-12T01:10:18.738Z,3.00
2023-05-12T01:13:21.458Z,3.70
2023-05-12T01:16:26.465Z,3.28
2023-05-12T01:19:31.710Z,2.70
2023-05-12T01:22:34.130Z,3.65
2023-05-12T01:25:39.243Z,3.53
2023-05-12T01:28:41.559Z,3.45
2023-05-12T01:31:44.297Z,3.25
2023-05-12T01:34:46.790Z,3.83
2023-05-12T01:37:49.822Z,3.40
2023-05-12T01:40:52.453Z,3.60
2023-05-12T01:43:54.836Z,3.25
2023-05-12T01:46:57.919Z,3.60
2023-05-12T01:50:00.161Z,3.07
2023-05-12T01:53:02.291Z,3.80
2023-05-12T01:56:06.055Z,3.97
2023-05-12T01:59:09.040Z,3.03
2023-05-12T02:02:12.484Z,3.83
2023-05-12T02:05:14.617Z,3.97
2023-05-12T02:08:19.031Z,3.90
2023-05-12T02:11:21.850Z,3.95
2023-05-12T02:14:23.912Z,3.43
2023-05-12T02:17:26.352Z,3.50
2023-05-12T02:20:31.760Z,4.00
2023-05-12T02:23:33.830Z,4.15
2023-05-12T02:26:36.107Z,3.80
2023-05-12T02:29:38.277Z,3.70
2023-05-12T02:32:41.189Z,4.53
2023-05-12T02:35:44.055Z,3.85
2023-05-12T02:38:46.185Z,4.00
2023-05-12T02:41:48.240Z,3.67
2023-05-12T02:44:51.343Z,3.67
2023-05-12T02:47:53.486Z,3.83
2023-05-12T02:50:56.144Z,4.53
2023-05-12T02:53:58.371Z,3.80
2023-05-12T02:57:03.959Z,4.13
2023-05-12T03:00:06.369Z,4.47
2023-05-12T03:03:11.299Z,4.28
2023-05-12T03:06:14.990Z,4.20
2023-05-12T03:09:17.030Z,4.40
2023-05-12T03:12:19.286Z,4.03
2023-05-12T03:15:21.444Z,4.65
2023-05-12T03:18:23.492Z,4.30
2023-05-12T03:21:26.017Z,4.43
2023-05-12T03:24:28.137Z,4.57
2023-05-12T03:27:30.827Z,4.83
2023-05-12T03:30:33.315Z,5.67
2023-05-12T03:33:35.366Z,4.45
2023-05-12T03:36:37.535Z,4.10
2023-05-12T03:39:39.715Z,4.07
2023-05-12T03:42:41.727Z,4.70
2023-05-12T03:45:43.763Z,5.07
2023-05-12T03:48:45.906Z,4.60
2023-05-12T03:51:47.927Z,5.03
2023-05-12T03:54:50.752Z,5.07
2023-05-12T03:57:53.106Z,4.40
2023-05-12T04:00:56.950Z,4.50
2023-05-12T04:03:58.973Z,4.07
2023-05-12T04:07:01.083Z,4.40
2023-05-12T04:10:03.362Z,4.30
2023-05-12T04:13:05.391Z,4.57
2023-05-12T04:16:07.604Z,4.70
2023-05-12T04:19:09.788Z,4.53
2023-05-12T04:22:12.564Z,5.03
2023-05-12T04:25:15.530Z,3.90
2023-05-12T04:28:17.560Z,4.73
2023-05-12T04:31:20.092Z,5.63
2023-05-12T04:34:22.156Z,4.60
2023-05-12T04:37:24.907Z,4.82
2023-05-12T04:40:27.244Z,5.60
2023-05-12T04:46:36.112Z,4.15
2023-05-12T04:49:38.567Z,5.10
2023-05-12T04:52:41.012Z,5.00
2023-05-12T04:55:45.844Z,5.17
2023-05-12T04:58:48.044Z,4.55
2023-05-12T05:01:50.445Z,4.57
2023-05-12T05:04:52.946Z,4.67
2023-05-12T05:07:57.890Z,4.30
2023-05-12T05:11:00.200Z,4.78
2023-05-12T05:14:03.920Z,4.80
2023-05-12T05:17:08.382Z,4.90
2023-05-12T05:20:12.645Z,4.97
2023-05-12T05:23:17.428Z,5.57
2023-05-12T05:26:19.609Z,4.50
2023-05-12T05:29:22.061Z,5.38
2023-05-12T05:32:24.686Z,4.37
2023-05-12T05:35:26.938Z,4.32
2023-05-12T05:38:29.590Z,4.15
2023-05-12T05:41:31.691Z,4.78
2023-05-12T05:44:34.355Z,4.60
2023-05-12T05:47:37.795Z,4.23
2023-05-12T05:50:40.833Z,4.82
2023-05-12T05:53:43.163Z,4.45
2023-05-12T05:56:46.275Z,4.70
2023-05-12T05:59:51.654Z,4.80
2023-05-12T06:02:54.705Z,4.00
2023-05-12T06:05:57.519Z,4.47
2023-05-12T06:09:00.775Z,4.65
2023-05-12T06:12:03.114Z,4.60
2023-05-12T06:15:05.596Z,4.10
2023-05-12T06:18:07.938Z,4.90
2023-05-12T06:21:10.090Z,4.93
2023-05-12T06:24:12.231Z,5.03
2023-05-12T06:27:14.281Z,4.73
2023-05-12T06:30:16.699Z,5.22
2023-05-12T06:33:18.740Z,4.82
2023-05-12T06:36:20.881Z,4.90
2023-05-12T06:39:23.622Z,4.93
2023-05-12T06:42:25.799Z,5.30
2023-05-12T06:45:28.065Z,4.70
2023-05-12T06:48:31.343Z,5.13
2023-05-12T06:51:34.127Z,4.97
2023-05-12T06:54:36.212Z,5.50
2023-05-12T06:57:38.659Z,5.20
2023-05-12T07:00:40.811Z,4.85
2023-05-12T07:03:42.949Z,5.40
2023-05-12T07:06:45.214Z,5.15
2023-05-12T07:09:47.340Z,4.57
2023-05-12T07:12:49.484Z,4.90
2023-05-12T07:15:51.703Z,4.50
2023-05-12T07:18:53.920Z,5.38
2023-05-12T07:21:56.053Z,4.85
2023-05-12T07:24:58.912Z,5.93
2023-05-12T07:28:01.106Z,6.43
2023-05-12T07:31:03.700Z,6.45
2023-05-12T07:34:06.673Z,5.50
2023-05-12T07:37:08.714Z,4.75
2023-05-12T07:40:11.070Z,4.30
2023-05-12T07:43:13.363Z,4.47
2023-05-12T07:46:16.239Z,4.22
2023-05-12T07:49:18.223Z,5.10
2023-05-12T07:52:20.310Z,4.72
2023-05-12T07:55:23.272Z,4.50
2023-05-12T07:58:25.506Z,4.47
2023-05-12T08:01:27.855Z,4.40
2023-05-12T08:04:30.417Z,4.95
2023-05-12T08:07:32.812Z,4.55
2023-05-12T08:10:35.494Z,4.07
2023-05-12T08:13:38.732Z,4.05
2023-05-12T08:16:41.189Z,5.25
2023-05-12T08:19:43.460Z,4.85
2023-05-12T08:22:48.008Z,4.77
2023-05-12T08:25:50.205Z,5.27
2023-05-12T08:28:52.297Z,5.13
2023-05-12T08:31:54.546Z,4.50
2023-05-12T08:34:56.682Z,4.95
2023-05-12T08:37:59.729Z,7.30
2023-05-12T08:41:04.613Z,6.00
2023-05-12T08:44:07.621Z,4.82
2023-05-12T08:47:12.096Z,3.65
2023-05-12T08:50:14.511Z,4.82
2023-05-12T08:53:18.651Z,4.83
2023-05-12T08:59:27.689Z,4.40
2023-05-12T09:02:44.535Z,3.50
2023-05-12T09:05:54.508Z,4.43
2023-05-12T09:08:58.116Z,4.00
2023-05-12T09:12:07.200Z,4.20
2023-05-12T09:15:10.841Z,6.18
2023-05-12T09:18:13.423Z,7.70
2023-05-12T09:21:15.812Z,7.13
2023-05-12T09:24:17.900Z,6.20
2023-05-12T09:27:27.314Z,5.17
2023-05-12T09:30:30.364Z,5.18
2023-05-12T09:33:34.731Z,3.33
2023-05-12T09:36:36.907Z,3.63
2023-05-12T09:39:38.985Z,3.40
2023-05-12T09:42:44.811Z,3.20
2023-05-12T09:45:50.145Z,3.78
2023-05-12T09:48:55.174Z,3.10
2023-05-12T09:51:58.741Z,3.75
2023-05-12T09:55:04.647Z,4.17
2023-05-12T09:58:08.632Z,2.83
2023-05-12T10:01:22.549Z,3.60
2023-05-12T10:04:25.416Z,2.47
2023-05-12T10:07:28.050Z,2.38
2023-05-12T10:10:30.143Z,2.60
2023-05-12T10:13:33.240Z,2.58
2023-05-12T10:16:35.741Z,2.50
2023-05-12T10:19:38.898Z,3.47
2023-05-12T10:22:41.296Z,2.38
2023-05-12T10:25:44.399Z,2.67
2023-05-12T10:28:47.244Z,2.50
2023-05-12T10:31:49.606Z,2.83
2023-05-12T10:34:52.286Z,2.67
2023-05-12T10:37:54.403Z,3.13
2023-05-12T10:40:59.382Z,2.80
2023-05-12T10:44:01.504Z,2.83
2023-05-12T10:47:13.807Z,2.63
2023-05-12T10:50:26.272Z,2.55
2023-05-12T10:53:38.061Z,2.95
2023-05-12T10:56:48.184Z,2.77
2023-05-12T10:59:52.322Z,2.42
2023-05-12T11:02:58.034Z,3.88
2023-05-12T11:06:04.929Z,3.20
2023-05-12T11:09:09.003Z,2.95
2023-05-12T11:12:11.945Z,3.37
2023-05-12T11:15:15.424Z,3.30
2023-05-12T11:18:22.058Z,3.17
2023-05-12T11:21:24.764Z,2.60
2023-05-12T11:24:27.056Z,2.55
2023-05-12T11:27:29.478Z,2.50
2023-05-12T11:30:31.536Z,2.58
2023-05-12T11:33:33.738Z,2.97
2023-05-12T11:36:36.478Z,3.08
2023-05-12T11:39:38.463Z,3.40
2023-05-12T11:42:42.903Z,3.10
2023-05-12T11:45:45.889Z,3.47
2023-05-12T11:48:54.054Z,3.38
2023-05-12T11:52:00.094Z,3.03
2023-05-12T11:55:03.256Z,2.97
2023-05-12T11:58:05.663Z,3.70
2023-05-12T12:01:13.872Z,3.70
2023-05-12T12:04:15.968Z,3.47
2023-05-12T12:07:28.203Z,3.92
2023-05-12T12:10:30.251Z,3.38
2023-05-12T12:13:32.366Z,3.27
2023-05-12T12:16:34.426Z,3.28
2023-05-12T12:19:36.549Z,3.25
2023-05-12T12:22:38.542Z,4.22
2023-05-12T12:25:40.646Z,3.78
2023-05-12T12:28:43.580Z,3.87
2023-05-12T12:31:46.093Z,3.40
2023-05-12T12:34:49.348Z,4.28
2023-05-12T12:37:52.398Z,3.65
2023-05-12T12:40:54.518Z,3.85
2023-05-12T12:43:56.931Z,4.63
2023-05-12T12:46:59.840Z,4.78
2023-05-12T12:50:01.950Z,4.78
2023-05-12T12:53:04.023Z,4.80
2023-05-12T12:56:06.257Z,4.10
2023-05-12T12:59:08.256Z,4.30
2023-05-12T13:02:10.360Z,4.45
2023-05-12T13:05:12.479Z,4.30
2023-05-12T13:08:14.511Z,4.63
2023-05-12T13:11:16.560Z,4.53
2023-05-12T13:14:19.014Z,4.87
2023-05-12T13:17:21.045Z,5.10
2023-05-12T13:20:23.245Z,5.90
2023-05-12T13:23:25.306Z,5.45
2023-05-12T13:26:27.365Z,4.90
2023-05-12T13:29:29.337Z,5.10
2023-05-12T13:32:31.566Z,5.88
2023-05-12T13:35:33.660Z,6.00
2023-05-12T13:38:35.730Z,5.00
2023-05-12T13:41:38.042Z,5.07
2023-05-12T13:44:40.093Z,4.93
2023-05-12T13:47:42.142Z,4.93
2023-05-12T13:50:44.157Z,5.05
2023-05-12T13:53:46.604Z,4.65
2023-05-12T13:56:49.568Z,4.78
2023-05-12T13:59:52.236Z,5.10
2023-05-12T14:02:54.419Z,5.30
2023-05-12T14:05:56.485Z,5.82
2023-05-12T14:08:58.505Z,5.43
2023-05-12T14:12:00.532Z,6.97
2023-05-12T14:15:21.322Z,6.32
2023-05-12T14:18:26.061Z,6.40
2023-05-12T14:21:28.164Z,6.43
2023-05-12T14:24:30.415Z,6.60
2023-05-12T14:27:32.441Z,5.60
2023-05-12T14:30:37.564Z,7.13
2023-05-12T14:33:39.826Z,7.60
2023-05-12T14:36:41.827Z,7.43
2023-05-12T14:39:44.014Z,7.10
2023-05-12T14:42:47.376Z,6.28
2023-05-12T14:45:54.868Z,7.05
2023-05-12T14:48:57.077Z,7.18
2023-05-12T14:51:59.296Z,6.47
2023-05-12T14:55:01.298Z,6.97
2023-05-12T14:58:03.323Z,7.20
2023-05-12T15:01:06.353Z,8.93
2023-05-12T15:04:10.079Z,6.82
2023-05-12T15:07:12.048Z,9.07
2023-05-12T15:10:14.141Z,8.25
2023-05-12T15:13:18.361Z,8.20
2023-05-12T15:16:20.377Z,9.32
2023-05-12T15:19:22.429Z,9.77
2023-05-12T15:22:24.541Z,7.68
2023-05-12T15:25:26.625Z,7.63
2023-05-12T15:28:28.746Z,7.45
2023-05-12T15:31:31.521Z,9.23
2023-05-12T15:34:34.164Z,8.47
2023-05-12T15:37:36.213Z,7.70
2023-05-12T15:40:38.240Z,7.35
2023-05-12T15:43:41.180Z,8.50
2023-05-12T15:46:44.067Z,8.57
2023-05-12T15:49:49.342Z,8.63
2023-05-12T15:52:51.507Z,8.93
2023-05-12T15:56:00.611Z,14.68
2023-05-12T15:59:02.813Z,10.10
2023-05-12T16:02:05.078Z,9.23
2023-05-12T16:05:07.491Z,9.27
2023-05-12T16:08:09.539Z,10.10
2023-05-12T16:11:13.128Z,9.83
2023-05-12T16:14:15.473Z,10.50
2023-05-12T16:17:17.544Z,9.73
2023-05-12T16:20:19.630Z,8.48
2023-05-12T16:23:21.776Z,9.35
2023-05-12T16:26:23.990Z,8.90
2023-05-12T16:29:26.082Z,9.10
2023-05-12T16:32:28.120Z,8.80
2023-05-12T16:35:30.177Z,8.88
2023-05-12T16:38:32.525Z,9.80
2023-05-12T16:41:35.279Z,9.75
2023-05-12T16:44:37.373Z,8.70
2023-05-12T16:47:39.574Z,9.45
2023-05-12T16:50:41.761Z,8.70
2023-05-12T16:53:43.867Z,9.45
2023-05-12T16:56:46.019Z,9.40
2023-05-12T16:59:50.762Z,8.80
2023-05-12T17:02:53.366Z,9.13
2023-05-12T17:05:55.752Z,8.52
2023-05-12T17:08:57.879Z,8.30
2023-05-12T17:11:59.996Z,9.20
2023-05-12T17:15:07.375Z,8.90
2023-05-12T17:18:10.354Z,8.75
2023-05-12T17:21:12.447Z,10.77
2023-05-12T17:24:14.482Z,8.85
2023-05-12T17:27:16.537Z,8.00
2023-05-12T17:30:18.740Z,8.50
2023-05-12T17:33:20.819Z,9.23
2023-05-12T17:36:23.264Z,8.75
2023-05-12T17:39:25.308Z,7.23
2023-05-12T17:42:31.170Z,7.10
2023-05-12T17:45:33.508Z,7.53
2023-05-12T17:48:35.716Z,7.78
2023-05-12T17:51:37.795Z,9.23
2023-05-12T17:54:39.842Z,13.00
2023-05-12T17:57:42.110Z,9.43
2023-05-12T18:00:44.168Z,8.73
2023-05-12T18:03:46.539Z,8.53
2023-05-12T18:06:50.293Z,7.17
2023-05-12T18:09:52.325Z,8.23
2023-05-12T18:12:55.515Z,6.50
2023-05-12T18:15:57.691Z,7.95
2023-05-12T18:18:59.745Z,7.27
2023-05-12T18:22:02.127Z,7.03
2023-05-12T18:25:04.293Z,8.27
2023-05-12T18:28:06.737Z,9.85
2023-05-12T18:31:16.055Z,9.70
2023-05-12T18:34:18.565Z,9.00
2023-05-12T18:37:20.556Z,8.20
2023-05-12T18:40:22.551Z,8.80
2023-05-12T18:43:24.737Z,8.93
2023-05-12T18:46:27.070Z,9.25
2023-05-12T18:49:30.638Z,9.48
2023-05-12T18:52:32.656Z,8.93
2023-05-12T18:55:34.852Z,8.47
2023-05-12T18:58:38.934Z,8.47
2023-05-12T19:01:40.964Z,7.97
2023-05-12T19:04:43.149Z,8.88
2023-05-12T19:07:45.158Z,8.95
2023-05-12T19:10:47.870Z,8.30
2023-05-12T19:13:50.810Z,9.63
2023-05-12T19:16:52.879Z,9.52
2023-05-12T19:19:54.971Z,9.20
2023-05-12T19:22:57.122Z,9.87
2023-05-12T19:25:59.156Z,10.85
2023-05-12T19:29:02.187Z,11.25
2023-05-12T19:32:05.113Z,10.07
2023-05-12T19:35:10.470Z,9.05
2023-05-12T19:38:12.472Z,9.80
2023-05-12T19:41:14.472Z,10.48
2023-05-12T19:44:16.502Z,10.82
2023-05-12T19:47:19.104Z,10.55
2023-05-12T19:50:21.314Z,10.47
2023-05-12T19:53:23.343Z,10.85
2023-05-12T19:56:25.463Z,10.45
2023-05-12T19:59:27.753Z,10.38
2023-05-12T20:02:31.087Z,10.97
2023-05-12T20:05:37.465Z,11.10
2023-05-12T20:08:39.431Z,9.38
2023-05-12T20:11:41.390Z,10.18
2023-05-12T20:14:43.451Z,11.27
2023-05-12T20:17:45.523Z,10.63
2023-05-12T20:20:47.623Z,11.23
2023-05-12T20:23:49.637Z,10.98
2023-05-12T20:26:52.491Z,10.50
2023-05-12T20:29:54.539Z,11.82
2023-05-12T20:32:56.690Z,10.82
2023-05-12T20:35:58.850Z,11.60
2023-05-12T20:39:00.899Z,10.53
2023-05-12T20:42:03.987Z,10.85
2023-05-12T20:45:06.688Z,10.73
2023-05-12T20:48:09.197Z,10.90
2023-05-12T20:51:11.950Z,11.90
2023-05-12T20:54:14.002Z,11.60
2023-05-12T20:57:16.042Z,10.75
2023-05-12T21:00:18.464Z,10.87
2023-05-12T21:03:22.802Z,10.63
2023-05-12T21:06:24.925Z,10.50
2023-05-12T21:09:26.928Z,10.30
2023-05-12T21:12:29.180Z,10.18
2023-05-12T21:15:31.199Z,9.50
2023-05-12T21:18:33.375Z,10.35
2023-05-12T21:21:35.513Z,9.75
2023-05-12T21:24:37.812Z,10.07
2023-05-12T21:27:43.035Z,10.43
2023-05-12T21:30:45.038Z,10.85
2023-05-12T21:33:48.173Z,10.93
2023-05-12T21:36:50.190Z,9.97
2023-05-12T21:39:52.193Z,8.27
2023-05-12T21:42:54.215Z,8.60
2023-05-12T21:45:56.302Z,8.05
2023-05-12T21:48:58.433Z,8.57
2023-05-12T21:52:00.425Z,8.37
2023-05-12T21:55:04.840Z,8.52
2023-05-12T21:58:06.820Z,7.97
2023-05-12T22:01:08.868Z,8.05
2023-05-12T22:04:11.013Z,8.30
2023-05-12T22:07:13.097Z,7.95
2023-05-12T22:10:15.155Z,8.95
2023-05-12T22:13:17.121Z,8.57
2023-05-12T22:16:23.638Z,8.30
2023-05-12T22:19:28.243Z,7.82
2023-05-12T22:22:30.299Z,7.72
2023-05-12T22:25:32.398Z,7.63
2023-05-12T22:28:34.433Z,7.57
2023-05-12T22:31:36.594Z,7.88
2023-05-12T22:34:38.755Z,8.43
2023-05-12T22:37:40.921Z,7.90
2023-05-12T22:40:43.044Z,6.53
2023-05-12T22:43:45.088Z,8.05
2023-05-12T22:46:47.159Z,7.88
2023-05-12T22:49:49.361Z,8.33
2023-05-12T22:52:57.179Z,8.52
2023-05-12T22:55:59.298Z,8.35
2023-05-12T22:59:01.302Z,8.90
2023-05-12T23:02:03.313Z,7.77
2023-05-12T23:05:05.677Z,8.68
2023-05-12T23:08:07.724Z,8.55
2023-05-12T23:11:09.925Z,7.85
2023-05-12T23:14:12.181Z,7.77
2023-05-12T23:17:14.258Z,7.38
2023-05-12T23:20:16.332Z,7.70
2023-05-12T23:23:18.366Z,8.60
2023-05-12T23:26:20.843Z,8.38
2023-05-12T23:29:22.920Z,7.90
2023-05-12T23:32:25.052Z,8.50
2023-05-12T23:35:27.405Z,7.87
2023-05-12T23:38:29.448Z,7.97
2023-05-12T23:41:31.875Z,7.30
2023-05-12T23:44:33.932Z,7.07
2023-05-12T23:47:36.270Z,8.50
2023-05-12T23:50:38.382Z,8.80
2023-05-12T23:53:40.429Z,8.50
2023-05-12T23:56:42.497Z,9.57
2023-05-12T23:59:44.668Z,8.73
